PWSweather.com
Personal Weather Stations
Station Observations
WD4JKH
Forsyth, GA 31029

Forsyth, GA 31029

Lat: 33.033225, Lon: -83.927995

Elevation: 709

Station Type: Davis Vantage VUE

High Low Average
Temperature 74.7°F23.7°C 70.3°F21.3°C 72.7°F22.6°C
Dew Point 71.3°F21.8°C 68.5°F20.3°C 70.5°F21.4°C
Winds 5.4 mph 8.7 kmh Calm Calm 1.0 mph SSW1.6 kmh SSW
Wind Gusts 10.0 mph16.1 kmh -- 4.0 mph6.4 kmh
Humidity 97% 85% 93%
Pressure 29.95 in1014.2 mb 29.84 in1010.5 mb -
Precipitation 0.37 in9.4 mm - -
Hour Temp Dew Point Humidity Winds Wind Gusts Pressure Precip Precip Rate Daily Precip Total
12:02 AM 73.7°F23.2°C 70.9°F21.6°C 91% 1.0 mph SW1.6 kmh SW 3.0 mph4.8 kmh 29.96 in1014.6 mb 0.00 in0.0 mm 0.00 in0.0 mm 0.00 in0.0 mm
12:07 AM 73.6°F23.1°C 70.8°F21.6°C 91% 1.4 mph SW2.3 kmh SW 2.0 mph3.2 kmh 29.96 in1014.6 mb 0.00 in0.0 mm 0.00 in0.0 mm 0.00 in0.0 mm
12:12 AM 73.5°F23.1°C 70.7°F21.5°C 91% 1.0 mph SSW1.6 kmh SSW 2.0 mph3.2 kmh 29.96 in1014.6 mb 0.00 in0.0 mm 0.00 in0.0 mm 0.00 in0.0 mm
12:17 AM 73.5°F23.1°C 71.0°F21.7°C 92% 1.0 mph SW1.6 kmh SW 2.0 mph3.2 kmh 29.96 in1014.6 mb 0.00 in0.0 mm 0.00 in0.0 mm 0.00 in0.0 mm
12:22 AM 73.4°F23.0°C 70.9°F21.6°C 92% Calm Calm 2.0 mph3.2 kmh 29.96 in1014.6 mb 0.00 in0.0 mm 0.00 in0.0 mm 0.00 in0.0 mm
12:27 AM 73.3°F22.9°C 71.1°F21.7°C 93% Calm Calm 3.0 mph4.8 kmh 29.96 in1014.6 mb 0.00 in0.0 mm 0.00 in0.0 mm 0.00 in0.0 mm
12:32 AM 73.2°F22.9°C 71.0°F21.7°C 93% 1.0 mph SW1.6 kmh SW 3.0 mph4.8 kmh 29.96 in1014.6 mb 0.00 in0.0 mm 0.00 in0.0 mm 0.00 in0.0 mm
12:37 AM 73.1°F22.8°C 71.0°F21.7°C 93% 1.0 mph SW1.6 kmh SW 3.0 mph4.8 kmh 29.95 in1014.2 mb 0.00 in0.0 mm 0.00 in0.0 mm 0.00 in0.0 mm
12:42 AM 73.1°F22.8°C 70.9°F21.6°C 93% 1.6 mph SW2.6 kmh SW 2.0 mph3.2 kmh 29.95 in1014.2 mb 0.00 in0.0 mm 0.00 in0.0 mm 0.00 in0.0 mm
12:47 AM 73.0°F22.8°C 70.8°F21.6°C 93% Calm Calm 2.0 mph3.2 kmh 29.95 in1014.2 mb 0.00 in0.0 mm 0.00 in0.0 mm 0.00 in0.0 mm
12:52 AM 73.0°F22.8°C 70.8°F21.6°C 93% 1.8 mph WSW2.9 kmh WSW 3.0 mph4.8 kmh 29.95 in1014.2 mb 0.00 in0.0 mm 0.00 in0.0 mm 0.00 in0.0 mm
12:57 AM 73.0°F22.8°C 70.8°F21.6°C 93% 1.2 mph SW1.9 kmh SW 3.0 mph4.8 kmh 29.95 in1014.2 mb 0.00 in0.0 mm 0.00 in0.0 mm 0.00 in0.0 mm
01:02 AM 72.9°F22.7°C 70.7°F21.5°C 93% Calm Calm 3.0 mph4.8 kmh 29.94 in1013.9 mb 0.00 in0.0 mm 0.00 in0.0 mm 0.00 in0.0 mm
01:07 AM 72.9°F22.7°C 70.7°F21.5°C 93% Calm Calm 3.0 mph4.8 kmh 29.94 in1013.9 mb 0.00 in0.0 mm 0.00 in0.0 mm 0.00 in0.0 mm
01:12 AM 72.9°F22.7°C 70.7°F21.5°C 93% 1.0 mph SW1.6 kmh SW 2.0 mph3.2 kmh 29.94 in1013.9 mb 0.00 in0.0 mm 0.00 in0.0 mm 0.00 in0.0 mm
01:17 AM 72.9°F22.7°C 70.7°F21.5°C 93% Calm Calm 1.0 mph1.6 kmh 29.94 in1013.9 mb 0.00 in0.0 mm 0.00 in0.0 mm 0.00 in0.0 mm
01:22 AM 72.9°F22.7°C 70.7°F21.5°C 93% Calm Calm 1.0 mph1.6 kmh 29.94 in1013.9 mb 0.00 in0.0 mm 0.00 in0.0 mm 0.00 in0.0 mm
01:27 AM 72.9°F22.7°C 70.7°F21.5°C 93% Calm Calm 1.0 mph1.6 kmh 29.94 in1013.9 mb 0.00 in0.0 mm 0.00 in0.0 mm 0.00 in0.0 mm
01:32 AM 72.9°F22.7°C 70.8°F21.6°C 93% Calm Calm 1.0 mph1.6 kmh 29.94 in1013.9 mb 0.00 in0.0 mm 0.00 in0.0 mm 0.00 in0.0 mm
01:37 AM 72.9°F22.7°C 70.8°F21.6°C 93% Calm Calm 1.0 mph1.6 kmh 29.94 in1013.9 mb 0.00 in0.0 mm 0.00 in0.0 mm 0.00 in0.0 mm
01:42 AM 72.9°F22.7°C 70.8°F21.6°C 93% Calm Calm 1.0 mph1.6 kmh 29.94 in1013.9 mb 0.00 in0.0 mm 0.00 in0.0 mm 0.00 in0.0 mm
01:47 AM 72.9°F22.7°C 70.7°F21.5°C 93% Calm Calm 1.0 mph1.6 kmh 29.93 in1013.5 mb 0.00 in0.0 mm 0.00 in0.0 mm 0.00 in0.0 mm
01:52 AM 72.8°F22.7°C 70.6°F21.4°C 93% Calm Calm 1.0 mph1.6 kmh 29.94 in1013.9 mb 0.00 in0.0 mm 0.00 in0.0 mm 0.00 in0.0 mm
01:57 AM 72.8°F22.7°C 70.6°F21.4°C 93% 1.3 mph SE2.1 kmh SE 2.0 mph3.2 kmh 29.94 in1013.9 mb 0.00 in0.0 mm 0.00 in0.0 mm 0.00 in0.0 mm
02:02 AM 72.9°F22.7°C 70.7°F21.5°C 93% 1.3 mph S2.1 kmh S 2.0 mph3.2 kmh 29.93 in1013.5 mb 0.00 in0.0 mm 0.00 in0.0 mm 0.00 in0.0 mm
02:07 AM 72.9°F22.7°C 70.4°F21.3°C 92% 1.0 mph SE1.6 kmh SE 2.0 mph3.2 kmh 29.93 in1013.5 mb 0.00 in0.0 mm 0.00 in0.0 mm 0.00 in0.0 mm
02:11 AM 73.0°F22.8°C 70.5°F21.4°C 92% Calm Calm 2.0 mph3.2 kmh 29.93 in1013.5 mb 0.00 in0.0 mm 0.00 in0.0 mm 0.00 in0.0 mm
02:16 AM 73.0°F22.8°C 70.5°F21.4°C 92% Calm Calm 2.0 mph3.2 kmh 29.93 in1013.5 mb 0.00 in0.0 mm 0.00 in0.0 mm 0.00 in0.0 mm
02:21 AM 73.0°F22.8°C 70.5°F21.4°C 92% 1.0 mph SE1.6 kmh SE 2.0 mph3.2 kmh 29.93 in1013.5 mb 0.00 in0.0 mm 0.00 in0.0 mm 0.00 in0.0 mm
02:26 AM 73.0°F22.8°C 70.5°F21.4°C 92% 1.3 mph SE2.1 kmh SE 2.0 mph3.2 kmh 29.93 in1013.5 mb 0.00 in0.0 mm 0.00 in0.0 mm 0.00 in0.0 mm
02:31 AM 73.0°F22.8°C 70.5°F21.4°C 92% 1.0 mph S1.6 kmh S 3.0 mph4.8 kmh 29.93 in1013.5 mb 0.00 in0.0 mm 0.00 in0.0 mm 0.00 in0.0 mm
02:36 AM 73.0°F22.8°C 70.5°F21.4°C 92% 1.6 mph SSE2.6 kmh SSE 3.0 mph4.8 kmh 29.92 in1013.2 mb 0.00 in0.0 mm 0.00 in0.0 mm 0.00 in0.0 mm
02:41 AM 73.0°F22.8°C 70.5°F21.4°C 92% 1.3 mph SE2.1 kmh SE 3.0 mph4.8 kmh 29.92 in1013.2 mb 0.00 in0.0 mm 0.00 in0.0 mm 0.00 in0.0 mm
02:46 AM 72.9°F22.7°C 70.4°F21.3°C 92% 1.0 mph S1.6 kmh S 3.0 mph4.8 kmh 29.92 in1013.2 mb 0.00 in0.0 mm 0.00 in0.0 mm 0.00 in0.0 mm
02:51 AM 72.9°F22.7°C 70.4°F21.3°C 92% 1.3 mph SW2.1 kmh SW 3.0 mph4.8 kmh 29.92 in1013.2 mb 0.00 in0.0 mm 0.00 in0.0 mm 0.00 in0.0 mm
02:56 AM 72.9°F22.7°C 70.4°F21.3°C 92% Calm Calm 2.0 mph3.2 kmh 29.92 in1013.2 mb 0.00 in0.0 mm 0.00 in0.0 mm 0.00 in0.0 mm
03:01 AM 72.9°F22.7°C 70.4°F21.3°C 92% 1.0 mph SW1.6 kmh SW 2.0 mph3.2 kmh 29.92 in1013.2 mb 0.00 in0.0 mm 0.00 in0.0 mm 0.00 in0.0 mm
03:06 AM 72.9°F22.7°C 70.7°F21.5°C 93% 1.0 mph SW1.6 kmh SW 5.0 mph8.0 kmh 29.92 in1013.2 mb 0.00 in0.0 mm 0.00 in0.0 mm 0.00 in0.0 mm
03:11 AM 72.8°F22.7°C 70.6°F21.4°C 93% 1.0 mph ESE1.6 kmh ESE 5.0 mph8.0 kmh 29.92 in1013.2 mb 0.00 in0.0 mm 0.00 in0.0 mm 0.00 in0.0 mm
03:16 AM 72.8°F22.7°C 70.6°F21.4°C 93% 1.0 mph SE1.6 kmh SE 5.0 mph8.0 kmh 29.92 in1013.2 mb 0.00 in0.0 mm 0.00 in0.0 mm 0.00 in0.0 mm
03:21 AM 72.7°F22.6°C 70.6°F21.4°C 93% 1.5 mph SE2.4 kmh SE 3.0 mph4.8 kmh 29.91 in1012.9 mb 0.00 in0.0 mm 0.00 in0.0 mm 0.00 in0.0 mm
03:26 AM 72.7°F22.6°C 70.8°F21.6°C 94% Calm Calm 3.0 mph4.8 kmh 29.91 in1012.9 mb 0.00 in0.0 mm 0.00 in0.0 mm 0.00 in0.0 mm
03:31 AM 72.6°F22.6°C 70.7°F21.5°C 94% Calm Calm 3.0 mph4.8 kmh 29.91 in1012.9 mb 0.00 in0.0 mm 0.00 in0.0 mm 0.00 in0.0 mm
03:36 AM 72.6°F22.6°C 70.7°F21.5°C 94% Calm Calm 3.0 mph4.8 kmh 29.91 in1012.9 mb 0.00 in0.0 mm 0.00 in0.0 mm 0.00 in0.0 mm
03:41 AM 72.5°F22.5°C 70.6°F21.4°C 94% 1.0 mph ESE1.6 kmh ESE 1.0 mph1.6 kmh 29.91 in1012.9 mb 0.00 in0.0 mm 0.00 in0.0 mm 0.00 in0.0 mm
03:46 AM 72.5°F22.5°C 70.7°F21.5°C 94% 1.0 mph SE1.6 kmh SE 1.0 mph1.6 kmh 29.91 in1012.9 mb 0.00 in0.0 mm 0.00 in0.0 mm 0.00 in0.0 mm
03:51 AM 72.4°F22.4°C 70.9°F21.6°C 95% Calm Calm 1.0 mph1.6 kmh 29.91 in1012.9 mb 0.00 in0.0 mm 0.00 in0.0 mm 0.00 in0.0 mm
03:56 AM 72.4°F22.4°C 70.9°F21.6°C 95% Calm Calm 1.0 mph1.6 kmh 29.91 in1012.9 mb 0.00 in0.0 mm 0.00 in0.0 mm 0.00 in0.0 mm
04:01 AM 72.3°F22.4°C 70.8°F21.6°C 95% 2.0 mph SSE3.2 kmh SSE 3.0 mph4.8 kmh 29.91 in1012.9 mb 0.00 in0.0 mm 0.00 in0.0 mm 0.00 in0.0 mm
04:06 AM 72.3°F22.4°C 70.8°F21.6°C 95% Calm Calm 3.0 mph4.8 kmh 29.91 in1012.9 mb 0.00 in0.0 mm 0.00 in0.0 mm 0.00 in0.0 mm
04:11 AM 72.2°F22.3°C 70.7°F21.5°C 95% Calm Calm 3.0 mph4.8 kmh 29.91 in1012.9 mb 0.00 in0.0 mm 0.00 in0.0 mm 0.00 in0.0 mm
04:16 AM 72.1°F22.3°C 70.6°F21.4°C 95% Calm Calm 3.0 mph4.8 kmh 29.91 in1012.9 mb 0.00 in0.0 mm 0.00 in0.0 mm 0.00 in0.0 mm
04:21 AM 72.1°F22.3°C 70.6°F21.4°C 95% 1.0 mph SW1.6 kmh SW 3.0 mph4.8 kmh 29.91 in1012.9 mb 0.00 in0.0 mm 0.00 in0.0 mm 0.00 in0.0 mm
04:26 AM 72.1°F22.3°C 70.6°F21.4°C 95% 1.0 mph SW1.6 kmh SW 3.0 mph4.8 kmh 29.91 in1012.9 mb 0.00 in0.0 mm 0.00 in0.0 mm 0.00 in0.0 mm
04:31 AM 72.1°F22.3°C 70.6°F21.4°C 95% Calm Calm 3.0 mph4.8 kmh 29.91 in1012.9 mb 0.00 in0.0 mm 0.00 in0.0 mm 0.00 in0.0 mm
04:36 AM 72.0°F22.2°C 70.5°F21.4°C 95% Calm Calm 1.0 mph1.6 kmh 29.90 in1012.5 mb 0.00 in0.0 mm 0.00 in0.0 mm 0.00 in0.0 mm
04:41 AM 72.0°F22.2°C 70.8°F21.6°C 96% 1.0 mph SW1.6 kmh SW 1.0 mph1.6 kmh 29.90 in1012.5 mb 0.00 in0.0 mm 0.00 in0.0 mm 0.00 in0.0 mm
04:46 AM 72.0°F22.2°C 70.8°F21.6°C 96% Calm Calm 1.0 mph1.6 kmh 29.90 in1012.5 mb 0.00 in0.0 mm 0.00 in0.0 mm 0.00 in0.0 mm
04:51 AM 72.0°F22.2°C 70.8°F21.6°C 96% Calm Calm 1.0 mph1.6 kmh 29.90 in1012.5 mb 0.00 in0.0 mm 0.00 in0.0 mm 0.00 in0.0 mm
04:56 AM 71.9°F22.2°C 70.7°F21.5°C 96% 1.0 mph SW1.6 kmh SW 1.0 mph1.6 kmh 29.90 in1012.5 mb 0.00 in0.0 mm 0.00 in0.0 mm 0.00 in0.0 mm
05:01 AM 71.9°F22.2°C 70.7°F21.5°C 96% Calm Calm 1.0 mph1.6 kmh 29.90 in1012.5 mb 0.00 in0.0 mm 0.00 in0.0 mm 0.00 in0.0 mm
05:06 AM 71.8°F22.1°C 70.6°F21.4°C 96% 1.0 mph SW1.6 kmh SW 1.0 mph1.6 kmh 29.90 in1012.5 mb 0.00 in0.0 mm 0.00 in0.0 mm 0.00 in0.0 mm
05:11 AM 71.8°F22.1°C 70.6°F21.4°C 96% Calm Calm 1.0 mph1.6 kmh 29.90 in1012.5 mb 0.00 in0.0 mm 0.00 in0.0 mm 0.00 in0.0 mm
05:16 AM 71.8°F22.1°C 70.6°F21.4°C 96% Calm Calm 1.0 mph1.6 kmh 29.90 in1012.5 mb 0.00 in0.0 mm 0.00 in0.0 mm 0.00 in0.0 mm
05:21 AM 71.8°F22.1°C 70.6°F21.4°C 96% Calm Calm 1.0 mph1.6 kmh 29.90 in1012.5 mb 0.00 in0.0 mm 0.00 in0.0 mm 0.00 in0.0 mm
05:26 AM 71.8°F22.1°C 70.6°F21.4°C 96% Calm Calm 1.0 mph1.6 kmh 29.90 in1012.5 mb 0.00 in0.0 mm 0.00 in0.0 mm 0.00 in0.0 mm
05:31 AM 71.8°F22.1°C 70.6°F21.4°C 96% 1.3 mph SW2.1 kmh SW 2.0 mph3.2 kmh 29.90 in1012.5 mb 0.00 in0.0 mm 0.00 in0.0 mm 0.00 in0.0 mm
05:36 AM 71.8°F22.1°C 70.6°F21.4°C 96% Calm Calm 2.0 mph3.2 kmh 29.90 in1012.5 mb 0.00 in0.0 mm 0.00 in0.0 mm 0.00 in0.0 mm
05:41 AM 71.8°F22.1°C 70.6°F21.4°C 96% Calm Calm 2.0 mph3.2 kmh 29.90 in1012.5 mb 0.00 in0.0 mm 0.00 in0.0 mm 0.00 in0.0 mm
05:46 AM 71.7°F22.1°C 70.5°F21.4°C 96% Calm Calm 2.0 mph3.2 kmh 29.90 in1012.5 mb 0.00 in0.0 mm 0.00 in0.0 mm 0.00 in0.0 mm
05:51 AM 71.8°F22.1°C 70.6°F21.4°C 96% Calm Calm 1.0 mph1.6 kmh 29.90 in1012.5 mb 0.00 in0.0 mm 0.00 in0.0 mm 0.00 in0.0 mm
05:56 AM 71.7°F22.1°C 70.5°F21.4°C 96% Calm Calm -- 29.90 in1012.5 mb 0.00 in0.0 mm 0.00 in0.0 mm 0.00 in0.0 mm
06:01 AM 71.7°F22.1°C 70.5°F21.4°C 96% Calm Calm -- 29.90 in1012.5 mb 0.00 in0.0 mm 0.00 in0.0 mm 0.00 in0.0 mm
06:06 AM 71.7°F22.1°C 70.5°F21.4°C 96% Calm Calm -- 29.90 in1012.5 mb 0.00 in0.0 mm 0.00 in0.0 mm 0.00 in0.0 mm
06:11 AM 71.6°F22.0°C 70.4°F21.3°C 96% Calm Calm -- 29.90 in1012.5 mb 0.00 in0.0 mm 0.00 in0.0 mm 0.00 in0.0 mm
06:16 AM 71.6°F22.0°C 70.4°F21.3°C 96% 1.0 mph SW1.6 kmh SW 1.0 mph1.6 kmh 29.90 in1012.5 mb 0.00 in0.0 mm 0.00 in0.0 mm 0.00 in0.0 mm
06:21 AM 71.6°F22.0°C 70.4°F21.3°C 96% Calm Calm 1.0 mph1.6 kmh 29.90 in1012.5 mb 0.00 in0.0 mm 0.00 in0.0 mm 0.00 in0.0 mm
06:26 AM 71.6°F22.0°C 70.4°F21.3°C 96% 1.2 mph SW1.9 kmh SW 2.0 mph3.2 kmh 29.90 in1012.5 mb 0.00 in0.0 mm 0.00 in0.0 mm 0.00 in0.0 mm
06:31 AM 71.6°F22.0°C 70.4°F21.3°C 96% 1.0 mph WSW1.6 kmh WSW 2.0 mph3.2 kmh 29.90 in1012.5 mb 0.00 in0.0 mm 0.00 in0.0 mm 0.00 in0.0 mm
06:36 AM 71.6°F22.0°C 70.4°F21.3°C 96% 1.0 mph SW1.6 kmh SW 2.0 mph3.2 kmh 29.90 in1012.5 mb 0.00 in0.0 mm 0.00 in0.0 mm 0.00 in0.0 mm
06:41 AM 71.6°F22.0°C 70.4°F21.3°C 96% Calm Calm 2.0 mph3.2 kmh 29.90 in1012.5 mb 0.00 in0.0 mm 0.00 in0.0 mm 0.00 in0.0 mm
06:46 AM 71.6°F22.0°C 70.4°F21.3°C 96% Calm Calm 1.0 mph1.6 kmh 29.91 in1012.9 mb 0.00 in0.0 mm 0.00 in0.0 mm 0.00 in0.0 mm
06:51 AM 71.6°F22.0°C 70.4°F21.3°C 96% 1.0 mph SW1.6 kmh SW 1.0 mph1.6 kmh 29.91 in1012.9 mb 0.00 in0.0 mm 0.00 in0.0 mm 0.00 in0.0 mm
06:56 AM 71.6°F22.0°C 70.7°F21.5°C 97% 1.0 mph SW1.6 kmh SW 1.0 mph1.6 kmh 29.91 in1012.9 mb 0.00 in0.0 mm 0.00 in0.0 mm 0.00 in0.0 mm
07:01 AM 71.6°F22.0°C 70.7°F21.5°C 97% 1.4 mph WSW2.3 kmh WSW 2.0 mph3.2 kmh 29.91 in1012.9 mb 0.00 in0.0 mm 0.00 in0.0 mm 0.00 in0.0 mm
07:06 AM 71.7°F22.1°C 70.8°F21.6°C 97% Calm Calm 2.0 mph3.2 kmh 29.91 in1012.9 mb 0.00 in0.0 mm 0.00 in0.0 mm 0.00 in0.0 mm
07:11 AM 71.7°F22.1°C 70.8°F21.6°C 97% 1.6 mph SW2.6 kmh SW 2.0 mph3.2 kmh 29.92 in1013.2 mb 0.00 in0.0 mm 0.00 in0.0 mm 0.00 in0.0 mm
07:16 AM 71.8°F22.1°C 70.9°F21.6°C 97% Calm Calm 2.0 mph3.2 kmh 29.91 in1012.9 mb 0.00 in0.0 mm 0.00 in0.0 mm 0.00 in0.0 mm
07:21 AM 71.8°F22.1°C 70.9°F21.6°C 97% 1.0 mph WSW1.6 kmh WSW 2.0 mph3.2 kmh 29.91 in1012.9 mb 0.00 in0.0 mm 0.00 in0.0 mm 0.00 in0.0 mm
07:26 AM 71.8°F22.1°C 70.6°F21.4°C 96% 1.4 mph SW2.3 kmh SW 2.0 mph3.2 kmh 29.91 in1012.9 mb 0.00 in0.0 mm 0.00 in0.0 mm 0.00 in0.0 mm
07:31 AM 71.9°F22.2°C 70.7°F21.5°C 96% 1.0 mph SW1.6 kmh SW 2.0 mph3.2 kmh 29.91 in1012.9 mb 0.00 in0.0 mm 0.00 in0.0 mm 0.00 in0.0 mm
07:36 AM 72.0°F22.2°C 70.8°F21.6°C 96% Calm Calm 2.0 mph3.2 kmh 29.91 in1012.9 mb 0.00 in0.0 mm 0.00 in0.0 mm 0.00 in0.0 mm
07:41 AM 72.2°F22.3°C 71.0°F21.7°C 96% 1.0 mph WSW1.6 kmh WSW 3.0 mph4.8 kmh 29.91 in1012.9 mb 0.00 in0.0 mm 0.00 in0.0 mm 0.00 in0.0 mm
07:46 AM 72.2°F22.3°C 71.0°F21.7°C 96% 1.3 mph W2.1 kmh W 3.0 mph4.8 kmh 29.91 in1012.9 mb 0.00 in0.0 mm 0.00 in0.0 mm 0.00 in0.0 mm
07:51 AM 72.3°F22.4°C 71.1°F21.7°C 96% 1.9 mph W3.1 kmh W 3.0 mph4.8 kmh 29.92 in1013.2 mb 0.00 in0.0 mm 0.00 in0.0 mm 0.00 in0.0 mm
07:56 AM 72.4°F22.4°C 71.2°F21.8°C 96% 2.3 mph WNW3.7 kmh WNW 5.0 mph8.0 kmh 29.92 in1013.2 mb 0.00 in0.0 mm 0.00 in0.0 mm 0.00 in0.0 mm
08:01 AM 72.5°F22.5°C 71.3°F21.8°C 96% 1.7 mph W2.7 kmh W 5.0 mph8.0 kmh 29.92 in1013.2 mb 0.00 in0.0 mm 0.00 in0.0 mm 0.00 in0.0 mm
08:06 AM 72.5°F22.5°C 71.0°F21.7°C 95% 1.9 mph W3.1 kmh W 5.0 mph8.0 kmh 29.92 in1013.2 mb 0.00 in0.0 mm 0.00 in0.0 mm 0.00 in0.0 mm
08:10 AM 72.6°F22.6°C 71.1°F21.7°C 95% 2.4 mph W3.9 kmh W 5.0 mph8.0 kmh 29.92 in1013.2 mb 0.00 in0.0 mm 0.00 in0.0 mm 0.00 in0.0 mm
08:15 AM 72.5°F22.5°C 71.0°F21.7°C 95% 2.6 mph W4.2 kmh W 7.0 mph11.3 kmh 29.92 in1013.2 mb 0.00 in0.0 mm 0.00 in0.0 mm 0.00 in0.0 mm
08:20 AM 72.5°F22.5°C 71.0°F21.7°C 95% 4.8 mph W7.7 kmh W 10.0 mph16.1 kmh 29.92 in1013.2 mb 0.00 in0.0 mm 0.00 in0.0 mm 0.00 in0.0 mm
08:25 AM 72.5°F22.5°C 71.0°F21.7°C 95% 2.0 mph W3.2 kmh W 10.0 mph16.1 kmh 29.93 in1013.5 mb 0.00 in0.0 mm 0.00 in0.0 mm 0.00 in0.0 mm
08:30 AM 72.5°F22.5°C 71.0°F21.7°C 95% 1.9 mph WNW3.1 kmh WNW 10.0 mph16.1 kmh 29.92 in1013.2 mb 0.00 in0.0 mm 0.00 in0.0 mm 0.00 in0.0 mm
08:35 AM 72.4°F22.4°C 70.9°F21.6°C 95% 3.2 mph WNW5.1 kmh WNW 10.0 mph16.1 kmh 29.93 in1013.5 mb 0.01 in0.3 mm 0.12 in3.0 mm 0.01 in0.3 mm
08:40 AM 72.3°F22.4°C 70.5°F21.4°C 94% 1.3 mph W2.1 kmh W 8.0 mph12.9 kmh 29.93 in1013.5 mb 0.01 in0.3 mm 0.00 in0.0 mm 0.01 in0.3 mm
08:45 AM 72.1°F22.3°C 70.2°F21.2°C 94% 1.9 mph NW3.1 kmh NW 8.0 mph12.9 kmh 29.93 in1013.5 mb 0.01 in0.3 mm 0.00 in0.0 mm 0.01 in0.3 mm
08:50 AM 71.9°F22.2°C 70.0°F21.1°C 94% 2.5 mph WNW4.0 kmh WNW 8.0 mph12.9 kmh 29.93 in1013.5 mb 0.01 in0.3 mm 0.00 in0.0 mm 0.01 in0.3 mm
08:55 AM 71.8°F22.1°C 69.9°F21.1°C 94% 2.2 mph NW3.5 kmh NW 6.0 mph9.7 kmh 29.93 in1013.5 mb 0.01 in0.3 mm 0.00 in0.0 mm 0.01 in0.3 mm
09:00 AM 71.8°F22.1°C 69.9°F21.1°C 94% 1.9 mph NW3.1 kmh NW 6.0 mph9.7 kmh 29.93 in1013.5 mb 0.01 in0.3 mm 0.00 in0.0 mm 0.01 in0.3 mm
09:05 AM 71.8°F22.1°C 69.9°F21.1°C 94% 3.5 mph WNW5.6 kmh WNW 7.0 mph11.3 kmh 29.93 in1013.5 mb 0.01 in0.3 mm 0.00 in0.0 mm 0.01 in0.3 mm
09:10 AM 71.8°F22.1°C 70.3°F21.3°C 95% 1.6 mph WNW2.6 kmh WNW 7.0 mph11.3 kmh 29.93 in1013.5 mb 0.02 in0.5 mm 0.12 in3.0 mm 0.02 in0.5 mm
09:15 AM 71.9°F22.2°C 70.0°F21.1°C 94% 2.1 mph WNW3.4 kmh WNW 7.0 mph11.3 kmh 29.93 in1013.5 mb 0.02 in0.5 mm 0.00 in0.0 mm 0.02 in0.5 mm
09:20 AM 72.0°F22.2°C 70.1°F21.2°C 94% 1.4 mph WNW2.3 kmh WNW 7.0 mph11.3 kmh 29.94 in1013.9 mb 0.02 in0.5 mm 0.00 in0.0 mm 0.02 in0.5 mm
09:25 AM 72.2°F22.3°C 70.4°F21.3°C 94% 1.0 mph NW1.6 kmh NW 4.0 mph6.4 kmh 29.94 in1013.9 mb 0.02 in0.5 mm 0.00 in0.0 mm 0.02 in0.5 mm
09:30 AM 72.4°F22.4°C 70.6°F21.4°C 94% 3.4 mph NW5.5 kmh NW 7.0 mph11.3 kmh 29.94 in1013.9 mb 0.02 in0.5 mm 0.00 in0.0 mm 0.02 in0.5 mm
09:35 AM 72.5°F22.5°C 71.0°F21.7°C 95% 3.4 mph WNW5.5 kmh WNW 8.0 mph12.9 kmh 29.94 in1013.9 mb 0.01 in0.3 mm 0.00 in0.0 mm 0.02 in0.5 mm
09:40 AM 72.6°F22.6°C 71.1°F21.7°C 95% 2.2 mph WNW3.5 kmh WNW 8.0 mph12.9 kmh 29.94 in1013.9 mb 0.01 in0.3 mm 0.00 in0.0 mm 0.02 in0.5 mm
09:45 AM 72.4°F22.4°C 70.5°F21.4°C 94% 4.3 mph NW6.9 kmh NW 8.0 mph12.9 kmh 29.94 in1013.9 mb 0.01 in0.3 mm 0.00 in0.0 mm 0.02 in0.5 mm
09:50 AM 72.4°F22.4°C 70.9°F21.6°C 95% 1.9 mph WNW3.1 kmh WNW 8.0 mph12.9 kmh 29.94 in1013.9 mb 0.01 in0.3 mm 0.00 in0.0 mm 0.02 in0.5 mm
09:55 AM 72.3°F22.4°C 70.4°F21.3°C 94% 3.8 mph NW6.1 kmh NW 8.0 mph12.9 kmh 29.94 in1013.9 mb 0.01 in0.3 mm 0.00 in0.0 mm 0.02 in0.5 mm
10:00 AM 72.2°F22.3°C 70.3°F21.3°C 94% 3.8 mph NW6.1 kmh NW 8.0 mph12.9 kmh 29.94 in1013.9 mb 0.02 in0.5 mm 0.01 in0.3 mm 0.03 in0.8 mm
10:05 AM 71.9°F22.2°C 69.7°F20.9°C 93% 5.4 mph NW8.7 kmh NW 10.0 mph16.1 kmh 29.94 in1013.9 mb 0.02 in0.5 mm 0.00 in0.0 mm 0.03 in0.8 mm
10:10 AM 71.8°F22.1°C 69.6°F20.9°C 93% 2.7 mph NNW4.3 kmh NNW 10.0 mph16.1 kmh 29.94 in1013.9 mb 0.01 in0.3 mm 0.00 in0.0 mm 0.03 in0.8 mm
10:15 AM 71.7°F22.1°C 69.5°F20.8°C 93% 2.4 mph NNW3.9 kmh NNW 10.0 mph16.1 kmh 29.94 in1013.9 mb 0.01 in0.3 mm 0.00 in0.0 mm 0.03 in0.8 mm
10:20 AM 71.6°F22.0°C 69.4°F20.8°C 93% 2.2 mph NW3.5 kmh NW 10.0 mph16.1 kmh 29.94 in1013.9 mb 0.01 in0.3 mm 0.00 in0.0 mm 0.03 in0.8 mm
10:25 AM 71.6°F22.0°C 69.5°F20.8°C 93% 3.7 mph NW6.0 kmh NW 9.0 mph14.5 kmh 29.94 in1013.9 mb 0.01 in0.3 mm 0.00 in0.0 mm 0.03 in0.8 mm
10:30 AM 71.6°F22.0°C 69.5°F20.8°C 93% 2.5 mph NNW4.0 kmh NNW 9.0 mph14.5 kmh 29.94 in1013.9 mb 0.01 in0.3 mm 0.00 in0.0 mm 0.03 in0.8 mm
10:35 AM 71.7°F22.1°C 69.9°F21.1°C 94% 1.9 mph NNE3.1 kmh NNE 9.0 mph14.5 kmh 29.94 in1013.9 mb 0.01 in0.3 mm 0.00 in0.0 mm 0.03 in0.8 mm
10:40 AM 71.5°F21.9°C 69.1°F20.6°C 92% 2.4 mph N3.9 kmh N 8.0 mph12.9 kmh 29.94 in1013.9 mb 0.01 in0.3 mm 0.00 in0.0 mm 0.03 in0.8 mm
10:45 AM 71.2°F21.8°C 68.7°F20.4°C 92% 4.0 mph NNW6.4 kmh NNW 9.0 mph14.5 kmh 29.94 in1013.9 mb 0.01 in0.3 mm 0.00 in0.0 mm 0.03 in0.8 mm
10:50 AM 71.2°F21.8°C 68.7°F20.4°C 92% 2.3 mph NW3.7 kmh NW 9.0 mph14.5 kmh 29.94 in1013.9 mb 0.01 in0.3 mm 0.00 in0.0 mm 0.03 in0.8 mm
10:55 AM 71.4°F21.9°C 69.2°F20.7°C 93% 1.4 mph NNW2.3 kmh NNW 9.0 mph14.5 kmh 29.94 in1013.9 mb 0.01 in0.3 mm 0.00 in0.0 mm 0.03 in0.8 mm
11:00 AM 71.5°F21.9°C 69.3°F20.7°C 93% 1.3 mph WNW2.1 kmh WNW 9.0 mph14.5 kmh 29.94 in1013.9 mb 0.00 in0.0 mm 0.00 in0.0 mm 0.03 in0.8 mm
11:05 AM 71.7°F22.1°C 69.8°F21.0°C 94% 1.5 mph N2.4 kmh N 5.0 mph8.0 kmh 29.94 in1013.9 mb 0.00 in0.0 mm 0.00 in0.0 mm 0.03 in0.8 mm
11:10 AM 71.9°F22.2°C 70.0°F21.1°C 94% 1.6 mph NNE2.6 kmh NNE 5.0 mph8.0 kmh 29.93 in1013.5 mb 0.00 in0.0 mm 0.00 in0.0 mm 0.03 in0.8 mm
11:15 AM 72.1°F22.3°C 69.9°F21.1°C 93% 2.4 mph NNE3.9 kmh NNE 5.0 mph8.0 kmh 29.93 in1013.5 mb 0.00 in0.0 mm 0.00 in0.0 mm 0.03 in0.8 mm
11:20 AM 71.9°F22.2°C 69.1°F20.6°C 91% 2.6 mph N4.2 kmh N 5.0 mph8.0 kmh 29.93 in1013.5 mb 0.00 in0.0 mm 0.00 in0.0 mm 0.03 in0.8 mm
11:25 AM 72.0°F22.2°C 69.5°F20.8°C 92% 1.5 mph N2.4 kmh N 5.0 mph8.0 kmh 29.94 in1013.9 mb 0.00 in0.0 mm 0.00 in0.0 mm 0.03 in0.8 mm
11:30 AM 72.3°F22.4°C 70.1°F21.2°C 93% 1.0 mph NNE1.6 kmh NNE 5.0 mph8.0 kmh 29.94 in1013.9 mb 0.00 in0.0 mm 0.00 in0.0 mm 0.03 in0.8 mm
11:35 AM 72.6°F22.6°C 70.1°F21.2°C 92% 2.2 mph NE3.5 kmh NE 6.0 mph9.7 kmh 29.94 in1013.9 mb 0.00 in0.0 mm 0.00 in0.0 mm 0.03 in0.8 mm
11:40 AM 72.5°F22.5°C 70.0°F21.1°C 92% 1.6 mph N2.6 kmh N 6.0 mph9.7 kmh 29.93 in1013.5 mb 0.00 in0.0 mm 0.00 in0.0 mm 0.03 in0.8 mm
11:45 AM 72.6°F22.6°C 70.1°F21.2°C 92% 1.9 mph NNE3.1 kmh NNE 6.0 mph9.7 kmh 29.93 in1013.5 mb 0.00 in0.0 mm 0.00 in0.0 mm 0.03 in0.8 mm
11:50 AM 72.7°F22.6°C 70.2°F21.2°C 92% 2.4 mph NE3.9 kmh NE 6.0 mph9.7 kmh 29.93 in1013.5 mb 0.00 in0.0 mm 0.00 in0.0 mm 0.03 in0.8 mm
11:55 AM 72.7°F22.6°C 69.9°F21.1°C 91% 2.0 mph NE3.2 kmh NE 6.0 mph9.7 kmh 29.93 in1013.5 mb 0.00 in0.0 mm 0.00 in0.0 mm 0.03 in0.8 mm
12:00 PM 73.0°F22.8°C 69.9°F21.1°C 90% 1.3 mph 2.1 kmh 6.0 mph9.7 kmh 29.93 in1013.5 mb 0.00 in0.0 mm 0.00 in0.0 mm 0.03 in0.8 mm
12:05 PM 72.8°F22.7°C 69.4°F20.8°C 89% 5.1 mph NE8.2 kmh NE 10.0 mph16.1 kmh 29.93 in1013.5 mb 0.00 in0.0 mm 0.00 in0.0 mm 0.03 in0.8 mm
12:10 PM 72.8°F22.7°C 69.7°F20.9°C 90% 3.9 mph NE6.3 kmh NE 10.0 mph16.1 kmh 29.93 in1013.5 mb 0.00 in0.0 mm 0.00 in0.0 mm 0.03 in0.8 mm
12:15 PM 73.1°F22.8°C 70.3°F21.3°C 91% 1.4 mph NNW2.3 kmh NNW 10.0 mph16.1 kmh 29.93 in1013.5 mb 0.00 in0.0 mm 0.00 in0.0 mm 0.03 in0.8 mm
12:20 PM 73.4°F23.0°C 70.3°F21.3°C 90% 2.0 mph NNE3.2 kmh NNE 10.0 mph16.1 kmh 29.93 in1013.5 mb 0.00 in0.0 mm 0.00 in0.0 mm 0.03 in0.8 mm
12:25 PM 73.8°F23.2°C 70.7°F21.5°C 90% 3.8 mph NE6.1 kmh NE 7.0 mph11.3 kmh 29.93 in1013.5 mb 0.00 in0.0 mm 0.00 in0.0 mm 0.03 in0.8 mm
12:30 PM 73.8°F23.2°C 71.0°F21.7°C 91% 1.5 mph N2.4 kmh N 7.0 mph11.3 kmh 29.93 in1013.5 mb 0.00 in0.0 mm 0.00 in0.0 mm 0.03 in0.8 mm
12:35 PM 74.0°F23.3°C 70.9°F21.6°C 90% 3.3 mph NE5.3 kmh NE 6.0 mph9.7 kmh 29.93 in1013.5 mb 0.00 in0.0 mm 0.00 in0.0 mm 0.03 in0.8 mm
12:40 PM 74.1°F23.4°C 71.3°F21.8°C 91% 2.3 mph NE3.7 kmh NE 6.0 mph9.7 kmh 29.93 in1013.5 mb 0.00 in0.0 mm 0.00 in0.0 mm 0.03 in0.8 mm
12:45 PM 73.9°F23.3°C 70.8°F21.6°C 90% 1.5 mph NE2.4 kmh NE 6.0 mph9.7 kmh 29.93 in1013.5 mb 0.00 in0.0 mm 0.00 in0.0 mm 0.03 in0.8 mm
12:50 PM 73.8°F23.2°C 70.7°F21.5°C 90% 2.4 mph NE3.9 kmh NE 6.0 mph9.7 kmh 29.93 in1013.5 mb 0.00 in0.0 mm 0.00 in0.0 mm 0.03 in0.8 mm
12:55 PM 73.8°F23.2°C 71.0°F21.7°C 91% 1.2 mph NNW1.9 kmh NNW 4.0 mph6.4 kmh 29.93 in1013.5 mb 0.00 in0.0 mm 0.00 in0.0 mm 0.03 in0.8 mm
01:00 PM 73.6°F23.1°C 70.8°F21.6°C 91% 1.5 mph E2.4 kmh E 4.0 mph6.4 kmh 29.93 in1013.5 mb 0.01 in0.3 mm 0.01 in0.3 mm 0.04 in1.0 mm
01:05 PM 73.5°F23.1°C 71.0°F21.7°C 92% Calm Calm 4.0 mph6.4 kmh 29.93 in1013.5 mb 0.01 in0.3 mm 0.00 in0.0 mm 0.04 in1.0 mm
01:10 PM 73.4°F23.0°C 70.9°F21.6°C 92% Calm Calm 3.0 mph4.8 kmh 29.93 in1013.5 mb 0.02 in0.5 mm 0.12 in3.0 mm 0.05 in1.3 mm
01:15 PM 73.3°F22.9°C 71.1°F21.7°C 93% 1.2 mph WSW1.9 kmh WSW 3.0 mph4.8 kmh 29.94 in1013.9 mb 0.02 in0.5 mm 0.00 in0.0 mm 0.05 in1.3 mm
01:20 PM 73.1°F22.8°C 70.9°F21.6°C 93% 1.4 mph WSW2.3 kmh WSW 3.0 mph4.8 kmh 29.95 in1014.2 mb 0.03 in0.8 mm 0.12 in3.0 mm 0.06 in1.5 mm
01:25 PM 72.9°F22.7°C 70.7°F21.5°C 93% 1.7 mph W2.7 kmh W 3.0 mph4.8 kmh 29.94 in1013.9 mb 0.05 in1.3 mm 0.24 in6.1 mm 0.08 in2.0 mm
01:30 PM 72.8°F22.7°C 70.9°F21.6°C 94% 1.4 mph WNW2.3 kmh WNW 2.0 mph3.2 kmh 29.94 in1013.9 mb 0.06 in1.5 mm 0.12 in3.0 mm 0.09 in2.3 mm
01:35 PM 72.7°F22.6°C 70.8°F21.6°C 94% 1.3 mph NW2.1 kmh NW 3.0 mph4.8 kmh 29.94 in1013.9 mb 0.06 in1.5 mm 0.00 in0.0 mm 0.09 in2.3 mm
01:40 PM 72.7°F22.6°C 71.2°F21.8°C 95% 1.5 mph WNW2.4 kmh WNW 3.0 mph4.8 kmh 29.94 in1013.9 mb 0.07 in1.8 mm 0.12 in3.0 mm 0.10 in2.5 mm
01:45 PM 72.8°F22.7°C 71.3°F21.8°C 95% 1.6 mph W2.6 kmh W 3.0 mph4.8 kmh 29.94 in1013.9 mb 0.07 in1.8 mm 0.00 in0.0 mm 0.10 in2.5 mm
01:50 PM 72.8°F22.7°C 71.3°F21.8°C 95% 2.0 mph SW3.2 kmh SW 3.0 mph4.8 kmh 29.95 in1014.2 mb 0.08 in2.0 mm 0.12 in3.0 mm 0.11 in2.8 mm
01:55 PM 72.6°F22.6°C 71.1°F21.7°C 95% 2.1 mph NW3.4 kmh NW 3.0 mph4.8 kmh 29.94 in1013.9 mb 0.09 in2.3 mm 0.12 in3.0 mm 0.12 in3.0 mm
02:00 PM 72.6°F22.6°C 71.1°F21.7°C 95% Calm Calm 3.0 mph4.8 kmh 29.95 in1014.2 mb 0.08 in2.0 mm 0.00 in0.0 mm 0.12 in3.0 mm
02:05 PM 72.6°F22.6°C 71.1°F21.7°C 95% 1.5 mph WSW2.4 kmh WSW 3.0 mph4.8 kmh 29.95 in1014.2 mb 0.08 in2.0 mm 0.00 in0.0 mm 0.12 in3.0 mm
02:09 PM 71.9°F22.2°C 69.7°F20.9°C 93% 1.0 mph WSW1.6 kmh WSW 3.0 mph4.8 kmh 29.95 in1014.2 mb 0.08 in2.0 mm 0.00 in0.0 mm 0.13 in3.3 mm
02:14 PM 72.2°F22.3°C 70.3°F21.3°C 94% Calm Calm 2.0 mph3.2 kmh 29.95 in1014.2 mb 0.11 in2.8 mm 0.36 in9.1 mm 0.16 in4.1 mm
02:19 PM 72.3°F22.4°C 70.4°F21.3°C 94% 1.0 mph SW1.6 kmh SW 2.0 mph3.2 kmh 29.95 in1014.2 mb 0.15 in3.8 mm 0.48 in12.2 mm 0.21 in5.3 mm
02:24 PM 72.0°F22.2°C 70.2°F21.2°C 94% 1.4 mph WSW2.3 kmh WSW 3.0 mph4.8 kmh 29.95 in1014.2 mb 0.20 in5.1 mm 0.60 in15.2 mm 0.27 in6.9 mm
02:29 PM 71.6°F22.0°C 69.8°F21.0°C 94% 3.0 mph WSW4.8 kmh WSW 6.0 mph9.7 kmh 29.95 in1014.2 mb 0.23 in5.8 mm 0.36 in9.1 mm 0.32 in8.1 mm
02:34 PM 70.9°F21.6°C 69.1°F20.6°C 94% 2.6 mph W4.2 kmh W 10.0 mph16.1 kmh 29.95 in1014.2 mb 0.26 in6.6 mm 0.36 in9.1 mm 0.35 in8.9 mm
02:39 PM 70.3°F21.3°C 68.5°F20.3°C 94% 2.2 mph WSW3.5 kmh WSW 10.0 mph16.1 kmh 29.94 in1013.9 mb 0.26 in6.6 mm 0.00 in0.0 mm 0.36 in9.1 mm
02:44 PM 70.7°F21.5°C 69.2°F20.7°C 95% 1.0 mph W1.6 kmh W 10.0 mph16.1 kmh 29.94 in1013.9 mb 0.27 in6.9 mm 0.12 in3.0 mm 0.37 in9.4 mm
02:49 PM 70.6°F21.4°C 69.1°F20.6°C 95% 2.9 mph W4.7 kmh W 10.0 mph16.1 kmh 29.94 in1013.9 mb 0.26 in6.6 mm 0.00 in0.0 mm 0.37 in9.4 mm
02:54 PM 70.6°F21.4°C 69.1°F20.6°C 95% 1.7 mph WSW2.7 kmh WSW 10.0 mph16.1 kmh 29.94 in1013.9 mb 0.26 in6.6 mm 0.00 in0.0 mm 0.37 in9.4 mm
02:59 PM 70.7°F21.5°C 68.9°F20.5°C 94% 2.2 mph W3.5 kmh W 6.0 mph9.7 kmh 29.94 in1013.9 mb 0.25 in6.4 mm 0.00 in0.0 mm 0.37 in9.4 mm
03:04 PM 70.9°F21.6°C 69.1°F20.6°C 94% 1.2 mph WSW1.9 kmh WSW 6.0 mph9.7 kmh 29.94 in1013.9 mb 0.25 in6.4 mm 0.00 in0.0 mm 0.37 in9.4 mm
03:09 PM 71.0°F21.7°C 69.2°F20.7°C 94% 2.7 mph WNW4.3 kmh WNW 6.0 mph9.7 kmh 29.94 in1013.9 mb 0.24 in6.1 mm 0.00 in0.0 mm 0.37 in9.4 mm
03:14 PM 71.1°F21.7°C 69.3°F20.7°C 94% 1.4 mph WSW2.3 kmh WSW 6.0 mph9.7 kmh 29.93 in1013.5 mb 0.21 in5.3 mm 0.00 in0.0 mm 0.37 in9.4 mm
03:19 PM 71.3°F21.8°C 69.5°F20.8°C 94% 1.0 mph WSW1.6 kmh WSW 5.0 mph8.0 kmh 29.93 in1013.5 mb 0.16 in4.1 mm 0.00 in0.0 mm 0.37 in9.4 mm
03:24 PM 71.6°F22.0°C 70.1°F21.2°C 95% 1.4 mph SW2.3 kmh SW 5.0 mph8.0 kmh 29.93 in1013.5 mb 0.10 in2.5 mm 0.00 in0.0 mm 0.37 in9.4 mm
03:29 PM 72.0°F22.2°C 70.5°F21.4°C 95% Calm Calm 2.0 mph3.2 kmh 29.93 in1013.5 mb 0.05 in1.3 mm 0.00 in0.0 mm 0.37 in9.4 mm
03:34 PM 72.4°F22.4°C 70.9°F21.6°C 95% Calm Calm 2.0 mph3.2 kmh 29.93 in1013.5 mb 0.02 in0.5 mm 0.00 in0.0 mm 0.37 in9.4 mm
03:39 PM 72.5°F22.5°C 70.6°F21.4°C 94% 1.0 mph WSW1.6 kmh WSW 2.0 mph3.2 kmh 29.92 in1013.2 mb 0.01 in0.3 mm 0.00 in0.0 mm 0.37 in9.4 mm
03:44 PM 72.3°F22.4°C 70.1°F21.2°C 93% 1.9 mph WNW3.1 kmh WNW 4.0 mph6.4 kmh 29.92 in1013.2 mb 0.00 in0.0 mm 0.00 in0.0 mm 0.37 in9.4 mm
03:49 PM 72.4°F22.4°C 70.3°F21.3°C 93% 1.5 mph WNW2.4 kmh WNW 4.0 mph6.4 kmh 29.92 in1013.2 mb 0.00 in0.0 mm 0.00 in0.0 mm 0.37 in9.4 mm
03:54 PM 72.5°F22.5°C 70.0°F21.1°C 92% Calm Calm 4.0 mph6.4 kmh 29.92 in1013.2 mb 0.00 in0.0 mm 0.00 in0.0 mm 0.37 in9.4 mm
03:59 PM 72.6°F22.6°C 69.8°F21.0°C 91% 1.6 mph NW2.6 kmh NW 4.0 mph6.4 kmh 29.92 in1013.2 mb 0.00 in0.0 mm 0.00 in0.0 mm 0.37 in9.4 mm
04:04 PM 72.7°F22.6°C 70.2°F21.2°C 92% 1.0 mph WSW1.6 kmh WSW 4.0 mph6.4 kmh 29.92 in1013.2 mb 0.00 in0.0 mm 0.00 in0.0 mm 0.37 in9.4 mm
04:09 PM 72.8°F22.7°C 70.3°F21.3°C 92% Calm Calm 3.0 mph4.8 kmh 29.91 in1012.9 mb 0.00 in0.0 mm 0.00 in0.0 mm 0.37 in9.4 mm
04:14 PM 73.0°F22.8°C 70.5°F21.4°C 92% Calm Calm 3.0 mph4.8 kmh 29.91 in1012.9 mb 0.00 in0.0 mm 0.00 in0.0 mm 0.37 in9.4 mm
04:19 PM 72.9°F22.7°C 70.1°F21.2°C 91% Calm Calm 3.0 mph4.8 kmh 29.91 in1012.9 mb 0.00 in0.0 mm 0.00 in0.0 mm 0.37 in9.4 mm
04:24 PM 72.8°F22.7°C 70.0°F21.1°C 91% 1.0 mph WSW1.6 kmh WSW 1.0 mph1.6 kmh 29.91 in1012.9 mb 0.00 in0.0 mm 0.00 in0.0 mm 0.37 in9.4 mm
04:29 PM 72.9°F22.7°C 70.4°F21.3°C 92% Calm Calm 1.0 mph1.6 kmh 29.90 in1012.5 mb 0.00 in0.0 mm 0.00 in0.0 mm 0.37 in9.4 mm
04:34 PM 73.0°F22.8°C 70.2°F21.2°C 91% 1.0 mph SW1.6 kmh SW 1.0 mph1.6 kmh 29.90 in1012.5 mb 0.00 in0.0 mm 0.00 in0.0 mm 0.37 in9.4 mm
04:39 PM 73.2°F22.9°C 70.1°F21.2°C 90% Calm Calm 1.0 mph1.6 kmh 29.89 in1012.2 mb 0.00 in0.0 mm 0.00 in0.0 mm 0.37 in9.4 mm
04:44 PM 73.6°F23.1°C 70.8°F21.6°C 91% Calm Calm 1.0 mph1.6 kmh 29.89 in1012.2 mb 0.00 in0.0 mm 0.00 in0.0 mm 0.37 in9.4 mm
04:49 PM 73.8°F23.2°C 70.7°F21.5°C 90% 1.1 mph SE1.8 kmh SE 2.0 mph3.2 kmh 29.89 in1012.2 mb 0.00 in0.0 mm 0.00 in0.0 mm 0.37 in9.4 mm
04:55 PM 73.9°F23.3°C 70.8°F21.6°C 90% 1.3 mph SW2.1 kmh SW 2.0 mph3.2 kmh 29.89 in1012.2 mb 0.00 in0.0 mm 0.00 in0.0 mm 0.37 in9.4 mm
05:00 PM 74.1°F23.4°C 71.0°F21.7°C 90% 1.0 mph SW1.6 kmh SW 2.0 mph3.2 kmh 29.89 in1012.2 mb 0.00 in0.0 mm 0.00 in0.0 mm 0.37 in9.4 mm
05:05 PM 74.3°F23.5°C 71.2°F21.8°C 90% Calm Calm 2.0 mph3.2 kmh 29.89 in1012.2 mb 0.00 in0.0 mm 0.00 in0.0 mm 0.37 in9.4 mm
05:10 PM 74.4°F23.6°C 70.9°F21.6°C 89% 1.4 mph SW2.3 kmh SW 2.0 mph3.2 kmh 29.89 in1012.2 mb 0.00 in0.0 mm 0.00 in0.0 mm 0.37 in9.4 mm
05:15 PM 74.4°F23.6°C 70.6°F21.4°C 88% Calm Calm 4.0 mph6.4 kmh 29.89 in1012.2 mb 0.00 in0.0 mm 0.00 in0.0 mm 0.37 in9.4 mm
05:20 PM 74.7°F23.7°C 70.9°F21.6°C 88% 2.7 mph SW4.3 kmh SW 4.0 mph6.4 kmh 29.89 in1012.2 mb 0.00 in0.0 mm 0.00 in0.0 mm 0.37 in9.4 mm
05:25 PM 74.4°F23.6°C 70.0°F21.1°C 86% 2.6 mph WSW4.2 kmh WSW 8.0 mph12.9 kmh 29.89 in1012.2 mb 0.00 in0.0 mm 0.00 in0.0 mm 0.37 in9.4 mm
05:30 PM 74.3°F23.5°C 70.5°F21.4°C 88% 1.4 mph WSW2.3 kmh WSW 8.0 mph12.9 kmh 29.88 in1011.9 mb 0.00 in0.0 mm 0.00 in0.0 mm 0.37 in9.4 mm
05:35 PM 74.3°F23.5°C 70.5°F21.4°C 88% 1.8 mph WSW2.9 kmh WSW 8.0 mph12.9 kmh 29.88 in1011.9 mb 0.00 in0.0 mm 0.00 in0.0 mm 0.37 in9.4 mm
05:40 PM 74.3°F23.5°C 70.5°F21.4°C 88% 1.0 mph WSW1.6 kmh WSW 8.0 mph12.9 kmh 29.88 in1011.9 mb 0.00 in0.0 mm 0.00 in0.0 mm 0.37 in9.4 mm
05:45 PM 74.3°F23.5°C 70.5°F21.4°C 88% 1.3 mph W2.1 kmh W 4.0 mph6.4 kmh 29.88 in1011.9 mb 0.00 in0.0 mm 0.00 in0.0 mm 0.37 in9.4 mm
05:50 PM 74.2°F23.4°C 70.7°F21.5°C 89% 1.0 mph WSW1.6 kmh WSW 4.0 mph6.4 kmh 29.88 in1011.9 mb 0.00 in0.0 mm 0.00 in0.0 mm 0.37 in9.4 mm
05:55 PM 74.0°F23.3°C 69.9°F21.1°C 87% 1.8 mph WSW2.9 kmh WSW 4.0 mph6.4 kmh 29.88 in1011.9 mb 0.00 in0.0 mm 0.00 in0.0 mm 0.37 in9.4 mm
06:00 PM 73.9°F23.3°C 70.1°F21.2°C 88% 1.0 mph WSW1.6 kmh WSW 3.0 mph4.8 kmh 29.88 in1011.9 mb 0.00 in0.0 mm 0.00 in0.0 mm 0.37 in9.4 mm
06:05 PM 73.9°F23.3°C 70.1°F21.2°C 88% 1.4 mph SW2.3 kmh SW 3.0 mph4.8 kmh 29.88 in1011.9 mb 0.00 in0.0 mm 0.00 in0.0 mm 0.37 in9.4 mm
06:10 PM 74.0°F23.3°C 70.5°F21.4°C 89% 1.3 mph SW2.1 kmh SW 3.0 mph4.8 kmh 29.88 in1011.9 mb 0.00 in0.0 mm 0.00 in0.0 mm 0.37 in9.4 mm
06:15 PM 74.1°F23.4°C 70.3°F21.3°C 88% 1.8 mph SW2.9 kmh SW 3.0 mph4.8 kmh 29.88 in1011.9 mb 0.00 in0.0 mm 0.00 in0.0 mm 0.37 in9.4 mm
06:20 PM 74.1°F23.4°C 70.3°F21.3°C 88% 2.0 mph WSW3.2 kmh WSW 4.0 mph6.4 kmh 29.88 in1011.9 mb 0.00 in0.0 mm 0.00 in0.0 mm 0.37 in9.4 mm
06:25 PM 74.2°F23.4°C 70.1°F21.2°C 87% 1.6 mph SW2.6 kmh SW 4.0 mph6.4 kmh 29.88 in1011.9 mb 0.00 in0.0 mm 0.00 in0.0 mm 0.37 in9.4 mm
06:30 PM 74.3°F23.5°C 70.5°F21.4°C 88% 2.0 mph WSW3.2 kmh WSW 4.0 mph6.4 kmh 29.87 in1011.5 mb 0.00 in0.0 mm 0.00 in0.0 mm 0.37 in9.4 mm
06:35 PM 74.3°F23.5°C 70.2°F21.2°C 87% 1.8 mph WSW2.9 kmh WSW 6.0 mph9.7 kmh 29.87 in1011.5 mb 0.00 in0.0 mm 0.00 in0.0 mm 0.37 in9.4 mm
06:40 PM 74.4°F23.6°C 70.0°F21.1°C 86% 2.3 mph SW3.7 kmh SW 6.0 mph9.7 kmh 29.87 in1011.5 mb 0.00 in0.0 mm 0.00 in0.0 mm 0.37 in9.4 mm
06:45 PM 74.6°F23.7°C 70.2°F21.2°C 86% 2.2 mph WSW3.5 kmh WSW 6.0 mph9.7 kmh 29.86 in1011.2 mb 0.00 in0.0 mm 0.00 in0.0 mm 0.37 in9.4 mm
06:50 PM 74.6°F23.7°C 69.8°F21.0°C 85% 2.1 mph WSW3.4 kmh WSW 6.0 mph9.7 kmh 29.86 in1011.2 mb 0.00 in0.0 mm 0.00 in0.0 mm 0.37 in9.4 mm
06:55 PM 74.6°F23.7°C 70.2°F21.2°C 86% 1.2 mph WSW1.9 kmh WSW 5.0 mph8.0 kmh 29.86 in1011.2 mb 0.00 in0.0 mm 0.00 in0.0 mm 0.37 in9.4 mm
07:00 PM 74.7°F23.7°C 70.3°F21.3°C 86% 1.3 mph WSW2.1 kmh WSW 5.0 mph8.0 kmh 29.86 in1011.2 mb 0.00 in0.0 mm 0.00 in0.0 mm 0.37 in9.4 mm
07:05 PM 74.7°F23.7°C 70.2°F21.2°C 86% 1.3 mph SW2.1 kmh SW 5.0 mph8.0 kmh 29.86 in1011.2 mb 0.00 in0.0 mm 0.00 in0.0 mm 0.37 in9.4 mm
07:10 PM 74.7°F23.7°C 70.9°F21.6°C 88% 1.0 mph SW1.6 kmh SW 2.0 mph3.2 kmh 29.86 in1011.2 mb 0.00 in0.0 mm 0.00 in0.0 mm 0.37 in9.4 mm
07:15 PM 74.6°F23.7°C 70.2°F21.2°C 86% 1.4 mph WSW2.3 kmh WSW 3.0 mph4.8 kmh 29.86 in1011.2 mb 0.00 in0.0 mm 0.00 in0.0 mm 0.37 in9.4 mm
07:20 PM 74.5°F23.6°C 70.1°F21.2°C 86% 1.2 mph SW1.9 kmh SW 3.0 mph4.8 kmh 29.86 in1011.2 mb 0.00 in0.0 mm 0.00 in0.0 mm 0.37 in9.4 mm
07:25 PM 74.4°F23.6°C 69.9°F21.1°C 86% 1.5 mph SW2.4 kmh SW 3.0 mph4.8 kmh 29.86 in1011.2 mb 0.00 in0.0 mm 0.00 in0.0 mm 0.37 in9.4 mm
07:30 PM 74.3°F23.5°C 70.2°F21.2°C 87% 1.0 mph SW1.6 kmh SW 3.0 mph4.8 kmh 29.86 in1011.2 mb 0.00 in0.0 mm 0.00 in0.0 mm 0.37 in9.4 mm
07:35 PM 74.3°F23.5°C 70.5°F21.4°C 88% Calm Calm 2.0 mph3.2 kmh 29.86 in1011.2 mb 0.00 in0.0 mm 0.00 in0.0 mm 0.37 in9.4 mm
07:40 PM 74.3°F23.5°C 70.5°F21.4°C 88% Calm Calm 2.0 mph3.2 kmh 29.86 in1011.2 mb 0.00 in0.0 mm 0.00 in0.0 mm 0.37 in9.4 mm
07:45 PM 74.3°F23.5°C 70.8°F21.6°C 89% Calm Calm 1.0 mph1.6 kmh 29.86 in1011.2 mb 0.00 in0.0 mm 0.00 in0.0 mm 0.37 in9.4 mm
07:50 PM 74.3°F23.5°C 70.8°F21.6°C 89% Calm Calm -- 29.86 in1011.2 mb 0.00 in0.0 mm 0.00 in0.0 mm 0.37 in9.4 mm
07:55 PM 74.2°F23.4°C 71.1°F21.7°C 90% Calm Calm -- 29.86 in1011.2 mb 0.00 in0.0 mm 0.00 in0.0 mm 0.37 in9.4 mm
08:00 PM 74.1°F23.4°C 71.0°F21.7°C 90% Calm Calm 1.0 mph1.6 kmh 29.86 in1011.2 mb 0.00 in0.0 mm 0.00 in0.0 mm 0.37 in9.4 mm
08:05 PM 74.0°F23.3°C 70.9°F21.6°C 90% Calm Calm 1.0 mph1.6 kmh 29.86 in1011.2 mb 0.00 in0.0 mm 0.00 in0.0 mm 0.37 in9.4 mm
08:09 PM 73.9°F23.3°C 71.1°F21.7°C 91% Calm Calm 1.0 mph1.6 kmh 29.86 in1011.2 mb 0.00 in0.0 mm 0.00 in0.0 mm 0.37 in9.4 mm
08:14 PM 73.6°F23.1°C 70.8°F21.6°C 91% 1.0 mph SW1.6 kmh SW 1.0 mph1.6 kmh 29.86 in1011.2 mb 0.00 in0.0 mm 0.00 in0.0 mm 0.37 in9.4 mm
08:19 PM 73.5°F23.1°C 70.7°F21.5°C 91% Calm Calm 1.0 mph1.6 kmh 29.86 in1011.2 mb 0.00 in0.0 mm 0.00 in0.0 mm 0.37 in9.4 mm
08:24 PM 73.5°F23.1°C 71.0°F21.7°C 92% Calm Calm 1.0 mph1.6 kmh 29.86 in1011.2 mb 0.00 in0.0 mm 0.00 in0.0 mm 0.37 in9.4 mm
08:29 PM 73.4°F23.0°C 70.9°F21.6°C 92% Calm Calm 1.0 mph1.6 kmh 29.86 in1011.2 mb 0.00 in0.0 mm 0.00 in0.0 mm 0.37 in9.4 mm
08:34 PM 73.3°F22.9°C 70.8°F21.6°C 92% Calm Calm 1.0 mph1.6 kmh 29.86 in1011.2 mb 0.00 in0.0 mm 0.00 in0.0 mm 0.37 in9.4 mm
08:39 PM 73.2°F22.9°C 70.7°F21.5°C 92% 1.0 mph SE1.6 kmh SE 1.0 mph1.6 kmh 29.86 in1011.2 mb 0.00 in0.0 mm 0.00 in0.0 mm 0.37 in9.4 mm
08:44 PM 73.1°F22.8°C 70.3°F21.3°C 91% 1.0 mph E1.6 kmh E 2.0 mph3.2 kmh 29.86 in1011.2 mb 0.00 in0.0 mm 0.00 in0.0 mm 0.37 in9.4 mm
08:49 PM 73.1°F22.8°C 70.6°F21.4°C 92% 1.8 mph ESE2.9 kmh ESE 2.0 mph3.2 kmh 29.86 in1011.2 mb 0.00 in0.0 mm 0.00 in0.0 mm 0.37 in9.4 mm
08:54 PM 73.1°F22.8°C 70.6°F21.4°C 92% 1.6 mph SE2.6 kmh SE 3.0 mph4.8 kmh 29.86 in1011.2 mb 0.00 in0.0 mm 0.00 in0.0 mm 0.37 in9.4 mm
08:59 PM 73.1°F22.8°C 70.6°F21.4°C 92% 1.3 mph SE2.1 kmh SE 3.0 mph4.8 kmh 29.86 in1011.2 mb 0.00 in0.0 mm 0.00 in0.0 mm 0.37 in9.4 mm
09:04 PM 73.1°F22.8°C 70.6°F21.4°C 92% Calm Calm 3.0 mph4.8 kmh 29.86 in1011.2 mb 0.00 in0.0 mm 0.00 in0.0 mm 0.37 in9.4 mm
09:09 PM 73.0°F22.8°C 70.5°F21.4°C 92% 1.0 mph SE1.6 kmh SE 3.0 mph4.8 kmh 29.86 in1011.2 mb 0.00 in0.0 mm 0.00 in0.0 mm 0.37 in9.4 mm
09:14 PM 73.0°F22.8°C 70.5°F21.4°C 92% Calm Calm 2.0 mph3.2 kmh 29.86 in1011.2 mb 0.00 in0.0 mm 0.00 in0.0 mm 0.37 in9.4 mm
09:19 PM 72.9°F22.7°C 70.4°F21.3°C 92% 1.0 mph SE1.6 kmh SE 2.0 mph3.2 kmh 29.86 in1011.2 mb 0.00 in0.0 mm 0.00 in0.0 mm 0.37 in9.4 mm
09:24 PM 72.9°F22.7°C 70.4°F21.3°C 92% 1.0 mph SE1.6 kmh SE 1.0 mph1.6 kmh 29.86 in1011.2 mb 0.00 in0.0 mm 0.00 in0.0 mm 0.37 in9.4 mm
09:29 PM 72.9°F22.7°C 70.4°F21.3°C 92% 1.3 mph SE2.1 kmh SE 2.0 mph3.2 kmh 29.86 in1011.2 mb 0.00 in0.0 mm 0.00 in0.0 mm 0.37 in9.4 mm
09:34 PM 72.9°F22.7°C 70.7°F21.5°C 93% 1.9 mph SE3.1 kmh SE 3.0 mph4.8 kmh 29.86 in1011.2 mb 0.00 in0.0 mm 0.00 in0.0 mm 0.37 in9.4 mm
09:39 PM 72.8°F22.7°C 70.6°F21.4°C 93% 2.1 mph SE3.4 kmh SE 3.0 mph4.8 kmh 29.86 in1011.2 mb 0.00 in0.0 mm 0.00 in0.0 mm 0.37 in9.4 mm
09:44 PM 72.8°F22.7°C 70.6°F21.4°C 93% 1.5 mph SE2.4 kmh SE 3.0 mph4.8 kmh 29.86 in1011.2 mb 0.00 in0.0 mm 0.00 in0.0 mm 0.37 in9.4 mm
09:49 PM 72.7°F22.6°C 70.5°F21.4°C 93% 1.3 mph SE2.1 kmh SE 3.0 mph4.8 kmh 29.86 in1011.2 mb 0.00 in0.0 mm 0.00 in0.0 mm 0.37 in9.4 mm
09:54 PM 72.7°F22.6°C 70.5°F21.4°C 93% 1.0 mph SE1.6 kmh SE 3.0 mph4.8 kmh 29.86 in1011.2 mb 0.00 in0.0 mm 0.00 in0.0 mm 0.37 in9.4 mm
09:59 PM 72.6°F22.6°C 70.4°F21.3°C 93% 1.5 mph SE2.4 kmh SE 3.0 mph4.8 kmh 29.86 in1011.2 mb 0.00 in0.0 mm 0.00 in0.0 mm 0.37 in9.4 mm
10:04 PM 72.6°F22.6°C 70.4°F21.3°C 93% 1.6 mph SE2.6 kmh SE 3.0 mph4.8 kmh 29.86 in1011.2 mb 0.00 in0.0 mm 0.00 in0.0 mm 0.37 in9.4 mm
10:09 PM 72.6°F22.6°C 70.8°F21.6°C 94% 1.6 mph SE2.6 kmh SE 3.0 mph4.8 kmh 29.86 in1011.2 mb 0.00 in0.0 mm 0.00 in0.0 mm 0.37 in9.4 mm
10:14 PM 72.5°F22.5°C 70.6°F21.4°C 94% 2.2 mph SE3.5 kmh SE 4.0 mph6.4 kmh 29.86 in1011.2 mb 0.00 in0.0 mm 0.00 in0.0 mm 0.37 in9.4 mm
10:19 PM 72.5°F22.5°C 70.7°F21.5°C 94% 1.7 mph SE2.7 kmh SE 4.0 mph6.4 kmh 29.86 in1011.2 mb 0.00 in0.0 mm 0.00 in0.0 mm 0.37 in9.4 mm
10:24 PM 72.5°F22.5°C 70.7°F21.5°C 94% 1.3 mph E2.1 kmh E 4.0 mph6.4 kmh 29.86 in1011.2 mb 0.00 in0.0 mm 0.00 in0.0 mm 0.37 in9.4 mm
10:29 PM 72.4°F22.4°C 70.5°F21.4°C 94% 2.5 mph ESE4.0 kmh ESE 4.0 mph6.4 kmh 29.87 in1011.5 mb 0.00 in0.0 mm 0.00 in0.0 mm 0.37 in9.4 mm
10:34 PM 72.4°F22.4°C 70.5°F21.4°C 94% 2.1 mph SE3.4 kmh SE 4.0 mph6.4 kmh 29.86 in1011.2 mb 0.00 in0.0 mm 0.00 in0.0 mm 0.37 in9.4 mm
10:39 PM 72.4°F22.4°C 70.6°F21.4°C 94% 1.9 mph SE3.1 kmh SE 4.0 mph6.4 kmh 29.87 in1011.5 mb 0.00 in0.0 mm 0.00 in0.0 mm 0.37 in9.4 mm
10:44 PM 72.4°F22.4°C 70.5°F21.4°C 94% 2.5 mph ESE4.0 kmh ESE 5.0 mph8.0 kmh 29.87 in1011.5 mb 0.00 in0.0 mm 0.00 in0.0 mm 0.37 in9.4 mm
10:49 PM 72.4°F22.4°C 70.5°F21.4°C 94% 2.1 mph ESE3.4 kmh ESE 5.0 mph8.0 kmh 29.87 in1011.5 mb 0.00 in0.0 mm 0.00 in0.0 mm 0.37 in9.4 mm
10:54 PM 72.3°F22.4°C 70.4°F21.3°C 94% 2.4 mph ESE3.9 kmh ESE 5.0 mph8.0 kmh 29.87 in1011.5 mb 0.00 in0.0 mm 0.00 in0.0 mm 0.37 in9.4 mm
10:59 PM 72.3°F22.4°C 70.5°F21.4°C 94% 2.5 mph ESE4.0 kmh ESE 5.0 mph8.0 kmh 29.86 in1011.2 mb 0.00 in0.0 mm 0.00 in0.0 mm 0.37 in9.4 mm
11:04 PM 72.3°F22.4°C 70.4°F21.3°C 94% 2.0 mph ESE3.2 kmh ESE 5.0 mph8.0 kmh 29.86 in1011.2 mb 0.00 in0.0 mm 0.00 in0.0 mm 0.37 in9.4 mm
11:09 PM 72.3°F22.4°C 70.4°F21.3°C 94% 1.8 mph ESE2.9 kmh ESE 5.0 mph8.0 kmh 29.86 in1011.2 mb 0.00 in0.0 mm 0.00 in0.0 mm 0.37 in9.4 mm
11:14 PM 72.3°F22.4°C 70.4°F21.3°C 94% 1.8 mph SE2.9 kmh SE 6.0 mph9.7 kmh 29.86 in1011.2 mb 0.00 in0.0 mm 0.00 in0.0 mm 0.37 in9.4 mm
11:19 PM 72.4°F22.4°C 70.5°F21.4°C 94% 1.8 mph ESE2.9 kmh ESE 6.0 mph9.7 kmh 29.86 in1011.2 mb 0.00 in0.0 mm 0.00 in0.0 mm 0.37 in9.4 mm
11:24 PM 72.4°F22.4°C 70.5°F21.4°C 94% 1.8 mph SE2.9 kmh SE 6.0 mph9.7 kmh 29.86 in1011.2 mb 0.00 in0.0 mm 0.00 in0.0 mm 0.37 in9.4 mm
11:29 PM 72.5°F22.5°C 70.6°F21.4°C 94% 2.1 mph SE3.4 kmh SE 6.0 mph9.7 kmh 29.86 in1011.2 mb 0.00 in0.0 mm 0.00 in0.0 mm 0.37 in9.4 mm
11:34 PM 72.5°F22.5°C 70.7°F21.5°C 94% 1.6 mph SE2.6 kmh SE 4.0 mph6.4 kmh 29.86 in1011.2 mb 0.00 in0.0 mm 0.00 in0.0 mm 0.37 in9.4 mm
11:39 PM 72.5°F22.5°C 70.7°F21.5°C 94% 1.0 mph SE1.6 kmh SE 4.0 mph6.4 kmh 29.86 in1011.2 mb 0.00 in0.0 mm 0.00 in0.0 mm 0.37 in9.4 mm
11:44 PM 72.5°F22.5°C 70.6°F21.4°C 94% 1.8 mph SE2.9 kmh SE 4.0 mph6.4 kmh 29.86 in1011.2 mb 0.00 in0.0 mm 0.00 in0.0 mm 0.37 in9.4 mm
11:49 PM 72.5°F22.5°C 70.6°F21.4°C 94% 2.1 mph ESE3.4 kmh ESE 3.0 mph4.8 kmh 29.86 in1011.2 mb 0.00 in0.0 mm 0.00 in0.0 mm 0.37 in9.4 mm
11:54 PM 72.5°F22.5°C 70.6°F21.4°C 94% 1.7 mph SE2.7 kmh SE 3.0 mph4.8 kmh 29.86 in1011.2 mb 0.00 in0.0 mm 0.00 in0.0 mm 0.37 in9.4 mm
11:59 PM 72.4°F22.4°C 70.5°F21.4°C 94% 2.1 mph SE3.4 kmh SE 3.0 mph4.8 kmh 29.86 in1011.2 mb 0.00 in0.0 mm 0.00 in0.0 mm 0.37 in9.4 mm